sensor_id;sensor_type;location;lat;lon;timestamp;P1;durP1;ratioP1;P2;durP2;ratioP2
3465;SDS011;1747;48.884;9.160;2022-08-19T00:01:24;19.90;;;13.52;;
3465;SDS011;1747;48.884;9.160;2022-08-19T00:03:53;17.08;;;12.82;;
3465;SDS011;1747;48.884;9.160;2022-08-19T00:06:20;19.08;;;12.40;;
3465;SDS011;1747;48.884;9.160;2022-08-19T00:08:47;15.85;;;12.50;;
3465;SDS011;1747;48.884;9.160;2022-08-19T00:11:16;16.35;;;12.05;;
3465;SDS011;1747;48.884;9.160;2022-08-19T00:13:44;15.82;;;11.73;;
3465;SDS011;1747;48.884;9.160;2022-08-19T00:16:11;16.38;;;11.93;;
3465;SDS011;1747;48.884;9.160;2022-08-19T00:18:38;15.68;;;12.35;;
3465;SDS011;1747;48.884;9.160;2022-08-19T00:21:06;21.00;;;12.85;;
3465;SDS011;1747;48.884;9.160;2022-08-19T00:23:34;15.70;;;12.48;;
3465;SDS011;1747;48.884;9.160;2022-08-19T00:26:02;15.95;;;12.13;;
3465;SDS011;1747;48.884;9.160;2022-08-19T00:28:29;16.73;;;12.73;;
3465;SDS011;1747;48.884;9.160;2022-08-19T00:30:56;19.77;;;12.07;;
3465;SDS011;1747;48.884;9.160;2022-08-19T00:33:23;16.20;;;12.00;;
3465;SDS011;1747;48.884;9.160;2022-08-19T00:35:49;17.23;;;11.57;;
3465;SDS011;1747;48.884;9.160;2022-08-19T00:38:18;17.33;;;12.23;;
3465;SDS011;1747;48.884;9.160;2022-08-19T00:40:47;18.77;;;12.02;;
3465;SDS011;1747;48.884;9.160;2022-08-19T00:43:17;16.52;;;12.23;;
3465;SDS011;1747;48.884;9.160;2022-08-19T00:45:47;17.38;;;12.23;;
3465;SDS011;1747;48.884;9.160;2022-08-19T00:48:15;13.80;;;11.40;;
3465;SDS011;1747;48.884;9.160;2022-08-19T00:50:42;14.20;;;12.15;;
3465;SDS011;1747;48.884;9.160;2022-08-19T00:53:11;17.70;;;13.10;;
3465;SDS011;1747;48.884;9.160;2022-08-19T00:55:42;15.60;;;11.98;;
3465;SDS011;1747;48.884;9.160;2022-08-19T00:58:13;14.15;;;11.35;;
3465;SDS011;1747;48.884;9.160;2022-08-19T01:00:42;15.93;;;12.05;;
3465;SDS011;1747;48.884;9.160;2022-08-19T01:03:10;18.38;;;11.38;;
3465;SDS011;1747;48.884;9.160;2022-08-19T01:05:39;16.77;;;11.65;;
3465;SDS011;1747;48.884;9.160;2022-08-19T01:08:08;16.80;;;12.52;;
3465;SDS011;1747;48.884;9.160;2022-08-19T01:10:36;15.70;;;12.35;;
3465;SDS011;1747;48.884;9.160;2022-08-19T01:13:07;15.27;;;12.00;;
3465;SDS011;1747;48.884;9.160;2022-08-19T01:15:38;16.52;;;12.65;;
3465;SDS011;1747;48.884;9.160;2022-08-19T01:18:09;15.63;;;12.18;;
3465;SDS011;1747;48.884;9.160;2022-08-19T01:20:38;16.70;;;12.27;;
3465;SDS011;1747;48.884;9.160;2022-08-19T01:23:08;16.48;;;12.43;;
3465;SDS011;1747;48.884;9.160;2022-08-19T01:25:36;15.70;;;11.77;;
3465;SDS011;1747;48.884;9.160;2022-08-19T01:28:12;22.20;;;12.85;;
3465;SDS011;1747;48.884;9.160;2022-08-19T01:30:43;16.95;;;12.95;;
3465;SDS011;1747;48.884;9.160;2022-08-19T01:33:11;15.82;;;12.30;;
3465;SDS011;1747;48.884;9.160;2022-08-19T01:35:39;17.13;;;12.55;;
3465;SDS011;1747;48.884;9.160;2022-08-19T01:38:09;18.08;;;13.18;;
3465;SDS011;1747;48.884;9.160;2022-08-19T01:40:45;17.02;;;12.13;;
3465;SDS011;1747;48.884;9.160;2022-08-19T01:43:12;17.88;;;12.95;;
3465;SDS011;1747;48.884;9.160;2022-08-19T01:45:39;17.67;;;13.05;;
3465;SDS011;1747;48.884;9.160;2022-08-19T01:48:06;18.00;;;13.32;;
3465;SDS011;1747;48.884;9.160;2022-08-19T01:50:34;20.83;;;13.30;;
3465;SDS011;1747;48.884;9.160;2022-08-19T01:53:03;17.30;;;13.18;;
3465;SDS011;1747;48.884;9.160;2022-08-19T01:55:34;18.80;;;13.60;;
3465;SDS011;1747;48.884;9.160;2022-08-19T01:58:02;19.77;;;14.02;;
3465;SDS011;1747;48.884;9.160;2022-08-19T02:00:31;21.30;;;13.45;;
3465;SDS011;1747;48.884;9.160;2022-08-19T02:02:58;20.83;;;14.23;;
3465;SDS011;1747;48.884;9.160;2022-08-19T02:05:26;18.23;;;13.07;;
3465;SDS011;1747;48.884;9.160;2022-08-19T02:07:54;19.17;;;13.95;;
3465;SDS011;1747;48.884;9.160;2022-08-19T02:10:21;22.35;;;14.52;;
3465;SDS011;1747;48.884;9.160;2022-08-19T02:12:50;19.88;;;14.68;;
3465;SDS011;1747;48.884;9.160;2022-08-19T02:15:17;21.90;;;15.40;;
3465;SDS011;1747;48.884;9.160;2022-08-19T02:17:45;21.67;;;14.32;;
3465;SDS011;1747;48.884;9.160;2022-08-19T02:20:12;24.52;;;14.63;;
3465;SDS011;1747;48.884;9.160;2022-08-19T02:22:39;23.42;;;15.10;;
3465;SDS011;1747;48.884;9.160;2022-08-19T02:25:22;20.30;;;14.73;;
3465;SDS011;1747;48.884;9.160;2022-08-19T02:27:51;21.52;;;14.75;;
3465;SDS011;1747;48.884;9.160;2022-08-19T02:30:19;19.23;;;14.13;;
3465;SDS011;1747;48.884;9.160;2022-08-19T02:32:46;20.98;;;14.93;;
3465;SDS011;1747;48.884;9.160;2022-08-19T02:35:13;21.85;;;15.25;;
3465;SDS011;1747;48.884;9.160;2022-08-19T02:37:40;23.17;;;15.15;;
3465;SDS011;1747;48.884;9.160;2022-08-19T02:40:25;20.25;;;14.77;;
3465;SDS011;1747;48.884;9.160;2022-08-19T02:42:54;23.52;;;15.85;;
3465;SDS011;1747;48.884;9.160;2022-08-19T02:45:21;21.30;;;15.93;;
3465;SDS011;1747;48.884;9.160;2022-08-19T02:47:48;22.05;;;15.23;;
3465;SDS011;1747;48.884;9.160;2022-08-19T02:50:15;23.48;;;16.13;;
3465;SDS011;1747;48.884;9.160;2022-08-19T02:52:41;21.65;;;15.52;;
3465;SDS011;1747;48.884;9.160;2022-08-19T02:55:09;22.13;;;16.17;;
3465;SDS011;1747;48.884;9.160;2022-08-19T02:57:36;23.55;;;15.70;;
3465;SDS011;1747;48.884;9.160;2022-08-19T03:00:05;22.58;;;16.98;;
3465;SDS011;1747;48.884;9.160;2022-08-19T03:02:33;25.70;;;17.27;;
3465;SDS011;1747;48.884;9.160;2022-08-19T03:05:02;22.27;;;15.75;;
3465;SDS011;1747;48.884;9.160;2022-08-19T03:07:29;24.90;;;16.55;;
3465;SDS011;1747;48.884;9.160;2022-08-19T03:09:56;24.65;;;16.63;;
3465;SDS011;1747;48.884;9.160;2022-08-19T03:12:23;21.38;;;17.10;;
3465;SDS011;1747;48.884;9.160;2022-08-19T03:14:50;24.00;;;16.85;;
3465;SDS011;1747;48.884;9.160;2022-08-19T03:17:19;24.50;;;17.38;;
3465;SDS011;1747;48.884;9.160;2022-08-19T03:19:46;22.90;;;16.42;;
3465;SDS011;1747;48.884;9.160;2022-08-19T03:22:13;25.75;;;18.40;;
3465;SDS011;1747;48.884;9.160;2022-08-19T03:24:40;24.73;;;17.80;;
3465;SDS011;1747;48.884;9.160;2022-08-19T03:27:08;22.75;;;16.65;;
3465;SDS011;1747;48.884;9.160;2022-08-19T03:29:36;25.40;;;18.98;;
3465;SDS011;1747;48.884;9.160;2022-08-19T03:32:04;27.23;;;18.77;;
3465;SDS011;1747;48.884;9.160;2022-08-19T03:34:34;25.27;;;17.73;;
3465;SDS011;1747;48.884;9.160;2022-08-19T03:37:04;27.08;;;17.83;;
3465;SDS011;1747;48.884;9.160;2022-08-19T03:39:33;27.13;;;18.75;;
3465;SDS011;1747;48.884;9.160;2022-08-19T03:42:01;25.40;;;17.75;;
3465;SDS011;1747;48.884;9.160;2022-08-19T03:44:29;25.23;;;18.42;;
3465;SDS011;1747;48.884;9.160;2022-08-19T03:46:58;27.17;;;18.15;;
3465;SDS011;1747;48.884;9.160;2022-08-19T03:49:26;25.73;;;18.10;;
3465;SDS011;1747;48.884;9.160;2022-08-19T03:51:57;25.20;;;18.58;;
3465;SDS011;1747;48.884;9.160;2022-08-19T03:54:26;25.35;;;18.50;;
3465;SDS011;1747;48.884;9.160;2022-08-19T03:56:54;27.20;;;18.73;;
3465;SDS011;1747;48.884;9.160;2022-08-19T03:59:22;26.08;;;19.40;;
3465;SDS011;1747;48.884;9.160;2022-08-19T04:01:51;24.50;;;17.75;;
3465;SDS011;1747;48.884;9.160;2022-08-19T04:04:18;26.17;;;19.75;;
3465;SDS011;1747;48.884;9.160;2022-08-19T04:06:46;24.35;;;18.52;;
3465;SDS011;1747;48.884;9.160;2022-08-19T04:09:15;26.58;;;18.55;;
3465;SDS011;1747;48.884;9.160;2022-08-19T04:11:42;23.95;;;17.52;;
3465;SDS011;1747;48.884;9.160;2022-08-19T04:14:14;25.38;;;18.70;;
3465;SDS011;1747;48.884;9.160;2022-08-19T04:16:43;24.73;;;17.67;;
3465;SDS011;1747;48.884;9.160;2022-08-19T04:19:12;24.15;;;19.15;;
3465;SDS011;1747;48.884;9.160;2022-08-19T04:21:40;32.47;;;18.42;;
3465;SDS011;1747;48.884;9.160;2022-08-19T04:24:10;24.85;;;19.15;;
3465;SDS011;1747;48.884;9.160;2022-08-19T04:26:39;24.25;;;18.45;;
3465;SDS011;1747;48.884;9.160;2022-08-19T04:29:07;24.20;;;18.17;;
3465;SDS011;1747;48.884;9.160;2022-08-19T04:31:35;26.83;;;18.75;;
3465;SDS011;1747;48.884;9.160;2022-08-19T04:34:03;26.65;;;18.95;;
3465;SDS011;1747;48.884;9.160;2022-08-19T04:36:35;27.35;;;18.83;;
3465;SDS011;1747;48.884;9.160;2022-08-19T04:39:04;26.27;;;18.63;;
3465;SDS011;1747;48.884;9.160;2022-08-19T04:41:32;23.85;;;18.60;;
3465;SDS011;1747;48.884;9.160;2022-08-19T04:44:18;25.92;;;18.85;;
3465;SDS011;1747;48.884;9.160;2022-08-19T04:46:46;27.85;;;19.23;;
3465;SDS011;1747;48.884;9.160;2022-08-19T04:49:13;27.48;;;19.23;;
3465;SDS011;1747;48.884;9.160;2022-08-19T04:51:42;27.88;;;18.42;;
3465;SDS011;1747;48.884;9.160;2022-08-19T04:54:10;28.52;;;19.25;;
3465;SDS011;1747;48.884;9.160;2022-08-19T04:56:38;26.17;;;19.13;;
3465;SDS011;1747;48.884;9.160;2022-08-19T04:59:06;27.70;;;20.67;;
3465;SDS011;1747;48.884;9.160;2022-08-19T05:01:35;29.85;;;19.48;;
3465;SDS011;1747;48.884;9.160;2022-08-19T05:04:02;28.92;;;19.70;;
3465;SDS011;1747;48.884;9.160;2022-08-19T05:06:31;24.60;;;18.98;;
3465;SDS011;1747;48.884;9.160;2022-08-19T05:08:59;25.73;;;18.73;;
3465;SDS011;1747;48.884;9.160;2022-08-19T05:11:27;28.50;;;19.17;;
3465;SDS011;1747;48.884;9.160;2022-08-19T05:13:56;27.35;;;19.48;;
3465;SDS011;1747;48.884;9.160;2022-08-19T05:16:24;27.17;;;19.23;;
3465;SDS011;1747;48.884;9.160;2022-08-19T05:18:54;26.92;;;18.42;;
3465;SDS011;1747;48.884;9.160;2022-08-19T05:21:39;26.95;;;19.30;;
3465;SDS011;1747;48.884;9.160;2022-08-19T05:24:24;31.38;;;20.05;;
3465;SDS011;1747;48.884;9.160;2022-08-19T05:26:52;32.15;;;18.65;;
3465;SDS011;1747;48.884;9.160;2022-08-19T05:29:22;27.98;;;19.83;;
3465;SDS011;1747;48.884;9.160;2022-08-19T05:31:51;28.92;;;19.48;;
3465;SDS011;1747;48.884;9.160;2022-08-19T05:34:21;28.90;;;19.40;;
3465;SDS011;1747;48.884;9.160;2022-08-19T05:36:51;25.02;;;19.27;;
3465;SDS011;1747;48.884;9.160;2022-08-19T05:39:22;26.77;;;18.98;;
3465;SDS011;1747;48.884;9.160;2022-08-19T05:41:51;27.20;;;19.02;;
3465;SDS011;1747;48.884;9.160;2022-08-19T05:44:22;29.77;;;20.90;;
3465;SDS011;1747;48.884;9.160;2022-08-19T05:46:49;25.88;;;18.88;;
3465;SDS011;1747;48.884;9.160;2022-08-19T05:49:18;24.95;;;19.02;;
3465;SDS011;1747;48.884;9.160;2022-08-19T05:51:48;28.25;;;19.95;;
3465;SDS011;1747;48.884;9.160;2022-08-19T05:54:15;25.52;;;18.42;;
3465;SDS011;1747;48.884;9.160;2022-08-19T05:56:42;30.02;;;20.33;;
3465;SDS011;1747;48.884;9.160;2022-08-19T05:59:13;24.85;;;19.05;;
3465;SDS011;1747;48.884;9.160;2022-08-19T06:01:42;25.13;;;19.15;;
3465;SDS011;1747;48.884;9.160;2022-08-19T06:04:11;32.80;;;19.23;;
3465;SDS011;1747;48.884;9.160;2022-08-19T06:06:40;26.65;;;19.35;;
3465;SDS011;1747;48.884;9.160;2022-08-19T06:09:07;32.72;;;20.35;;
3465;SDS011;1747;48.884;9.160;2022-08-19T06:11:36;26.75;;;19.05;;
3465;SDS011;1747;48.884;9.160;2022-08-19T06:14:05;28.45;;;19.38;;
3465;SDS011;1747;48.884;9.160;2022-08-19T06:16:34;31.38;;;20.20;;
3465;SDS011;1747;48.884;9.160;2022-08-19T06:19:04;28.98;;;20.48;;
3465;SDS011;1747;48.884;9.160;2022-08-19T06:21:33;27.60;;;19.65;;
3465;SDS011;1747;48.884;9.160;2022-08-19T06:24:04;29.05;;;19.67;;
3465;SDS011;1747;48.884;9.160;2022-08-19T06:26:33;29.48;;;20.52;;
3465;SDS011;1747;48.884;9.160;2022-08-19T06:29:01;29.15;;;19.15;;
3465;SDS011;1747;48.884;9.160;2022-08-19T06:31:28;25.70;;;18.10;;
3465;SDS011;1747;48.884;9.160;2022-08-19T06:33:58;24.30;;;18.45;;
3465;SDS011;1747;48.884;9.160;2022-08-19T06:36:26;27.55;;;18.33;;
3465;SDS011;1747;48.884;9.160;2022-08-19T06:38:56;24.85;;;18.13;;
3465;SDS011;1747;48.884;9.160;2022-08-19T06:41:25;26.40;;;19.33;;
3465;SDS011;1747;48.884;9.160;2022-08-19T06:43:53;26.88;;;19.55;;
3465;SDS011;1747;48.884;9.160;2022-08-19T06:46:20;25.35;;;19.08;;
3465;SDS011;1747;48.884;9.160;2022-08-19T06:48:47;26.23;;;19.00;;
3465;SDS011;1747;48.884;9.160;2022-08-19T06:51:15;25.83;;;19.33;;
3465;SDS011;1747;48.884;9.160;2022-08-19T06:53:43;24.42;;;18.40;;
3465;SDS011;1747;48.884;9.160;2022-08-19T06:56:11;25.77;;;19.33;;
3465;SDS011;1747;48.884;9.160;2022-08-19T06:58:40;25.23;;;18.65;;
3465;SDS011;1747;48.884;9.160;2022-08-19T07:01:07;27.00;;;18.80;;
3465;SDS011;1747;48.884;9.160;2022-08-19T07:03:34;25.08;;;18.52;;
3465;SDS011;1747;48.884;9.160;2022-08-19T07:06:04;23.73;;;17.13;;
3465;SDS011;1747;48.884;9.160;2022-08-19T07:08:32;23.15;;;17.67;;
3465;SDS011;1747;48.884;9.160;2022-08-19T07:11:01;24.38;;;17.52;;
3465;SDS011;1747;48.884;9.160;2022-08-19T07:13:31;26.67;;;17.10;;
3465;SDS011;1747;48.884;9.160;2022-08-19T07:16:04;23.88;;;17.75;;
3465;SDS011;1747;48.884;9.160;2022-08-19T07:18:32;25.30;;;17.80;;
3465;SDS011;1747;48.884;9.160;2022-08-19T07:21:02;23.60;;;17.70;;
3465;SDS011;1747;48.884;9.160;2022-08-19T07:23:30;27.38;;;17.55;;
3465;SDS011;1747;48.884;9.160;2022-08-19T07:25:58;24.10;;;18.00;;
3465;SDS011;1747;48.884;9.160;2022-08-19T07:28:31;23.27;;;17.40;;
3465;SDS011;1747;48.884;9.160;2022-08-19T07:30:58;20.60;;;16.30;;
3465;SDS011;1747;48.884;9.160;2022-08-19T07:33:28;22.77;;;16.85;;
3465;SDS011;1747;48.884;9.160;2022-08-19T07:35:57;24.35;;;16.88;;
3465;SDS011;1747;48.884;9.160;2022-08-19T07:38:24;22.10;;;16.30;;
3465;SDS011;1747;48.884;9.160;2022-08-19T07:40:51;24.05;;;17.52;;
3465;SDS011;1747;48.884;9.160;2022-08-19T07:43:19;25.30;;;17.35;;
3465;SDS011;1747;48.884;9.160;2022-08-19T07:45:50;20.25;;;16.10;;
3465;SDS011;1747;48.884;9.160;2022-08-19T07:48:17;20.48;;;16.05;;
3465;SDS011;1747;48.884;9.160;2022-08-19T07:50:45;21.95;;;16.80;;
3465;SDS011;1747;48.884;9.160;2022-08-19T07:53:13;21.98;;;16.77;;
3465;SDS011;1747;48.884;9.160;2022-08-19T07:55:40;23.33;;;15.85;;
3465;SDS011;1747;48.884;9.160;2022-08-19T07:58:07;20.33;;;15.77;;
3465;SDS011;1747;48.884;9.160;2022-08-19T08:00:34;19.98;;;15.80;;
3465;SDS011;1747;48.884;9.160;2022-08-19T08:03:01;22.45;;;16.20;;
3465;SDS011;1747;48.884;9.160;2022-08-19T08:05:28;22.35;;;16.23;;
3465;SDS011;1747;48.884;9.160;2022-08-19T08:08:14;21.38;;;15.48;;
3465;SDS011;1747;48.884;9.160;2022-08-19T08:11:09;22.83;;;15.70;;
3465;SDS011;1747;48.884;9.160;2022-08-19T08:13:37;19.52;;;15.35;;
3465;SDS011;1747;48.884;9.160;2022-08-19T08:16:06;18.30;;;14.50;;
3465;SDS011;1747;48.884;9.160;2022-08-19T08:18:33;20.60;;;15.75;;
3465;SDS011;1747;48.884;9.160;2022-08-19T08:21:06;22.10;;;14.63;;
3465;SDS011;1747;48.884;9.160;2022-08-19T08:26:07;19.70;;;15.23;;
3465;SDS011;1747;48.884;9.160;2022-08-19T08:28:34;23.17;;;14.98;;
3465;SDS011;1747;48.884;9.160;2022-08-19T08:31:02;21.40;;;15.60;;
3465;SDS011;1747;48.884;9.160;2022-08-19T08:33:29;18.05;;;14.68;;
3465;SDS011;1747;48.884;9.160;2022-08-19T08:35:56;19.13;;;14.52;;
3465;SDS011;1747;48.884;9.160;2022-08-19T08:38:23;18.23;;;13.98;;
3465;SDS011;1747;48.884;9.160;2022-08-19T08:40:51;16.73;;;12.80;;
3465;SDS011;1747;48.884;9.160;2022-08-19T08:43:30;19.33;;;14.43;;
3465;SDS011;1747;48.884;9.160;2022-08-19T08:46:00;18.13;;;14.15;;
3465;SDS011;1747;48.884;9.160;2022-08-19T08:48:33;18.67;;;12.98;;
3465;SDS011;1747;48.884;9.160;2022-08-19T08:51:05;25.27;;;14.50;;
3465;SDS011;1747;48.884;9.160;2022-08-19T08:53:36;20.40;;;14.43;;
3465;SDS011;1747;48.884;9.160;2022-08-19T08:56:06;22.23;;;14.45;;
3465;SDS011;1747;48.884;9.160;2022-08-19T08:58:39;18.35;;;13.73;;
3465;SDS011;1747;48.884;9.160;2022-08-19T09:01:13;17.77;;;13.35;;
3465;SDS011;1747;48.884;9.160;2022-08-19T09:03:41;18.98;;;13.55;;
3465;SDS011;1747;48.884;9.160;2022-08-19T09:06:12;17.20;;;13.55;;
3465;SDS011;1747;48.884;9.160;2022-08-19T09:08:45;17.08;;;13.55;;
3465;SDS011;1747;48.884;9.160;2022-08-19T09:11:18;17.20;;;12.77;;
3465;SDS011;1747;48.884;9.160;2022-08-19T09:13:56;18.20;;;13.30;;
3465;SDS011;1747;48.884;9.160;2022-08-19T09:16:34;16.83;;;13.80;;
3465;SDS011;1747;48.884;9.160;2022-08-19T09:19:05;15.32;;;11.75;;
3465;SDS011;1747;48.884;9.160;2022-08-19T09:21:33;17.00;;;12.73;;
3465;SDS011;1747;48.884;9.160;2022-08-19T09:24:01;15.57;;;12.68;;
3465;SDS011;1747;48.884;9.160;2022-08-19T09:26:31;19.33;;;13.38;;
3465;SDS011;1747;48.884;9.160;2022-08-19T09:28:59;18.65;;;12.60;;
3465;SDS011;1747;48.884;9.160;2022-08-19T09:31:27;16.10;;;13.32;;
3465;SDS011;1747;48.884;9.160;2022-08-19T09:33:55;17.03;;;13.93;;
3465;SDS011;1747;48.884;9.160;2022-08-19T09:36:23;16.02;;;13.13;;
3465;SDS011;1747;48.884;9.160;2022-08-19T09:38:51;16.70;;;12.43;;
3465;SDS011;1747;48.884;9.160;2022-08-19T09:41:19;17.58;;;11.90;;
3465;SDS011;1747;48.884;9.160;2022-08-19T09:43:53;16.17;;;12.50;;
3465;SDS011;1747;48.884;9.160;2022-08-19T09:46:22;15.55;;;11.43;;
3465;SDS011;1747;48.884;9.160;2022-08-19T09:48:51;13.57;;;11.45;;
3465;SDS011;1747;48.884;9.160;2022-08-19T09:51:18;14.20;;;11.93;;
3465;SDS011;1747;48.884;9.160;2022-08-19T09:53:48;15.23;;;11.55;;
3465;SDS011;1747;48.884;9.160;2022-08-19T09:56:17;15.63;;;11.15;;
3465;SDS011;1747;48.884;9.160;2022-08-19T09:58:45;14.77;;;11.30;;
3465;SDS011;1747;48.884;9.160;2022-08-19T10:01:17;15.60;;;11.88;;
3465;SDS011;1747;48.884;9.160;2022-08-19T10:03:47;12.55;;;11.05;;
3465;SDS011;1747;48.884;9.160;2022-08-19T10:06:16;15.07;;;11.02;;
3465;SDS011;1747;48.884;9.160;2022-08-19T10:08:43;15.13;;;11.45;;
3465;SDS011;1747;48.884;9.160;2022-08-19T10:11:14;17.48;;;11.85;;
3465;SDS011;1747;48.884;9.160;2022-08-19T10:13:42;16.05;;;11.55;;
3465;SDS011;1747;48.884;9.160;2022-08-19T10:16:10;14.40;;;11.23;;
3465;SDS011;1747;48.884;9.160;2022-08-19T10:18:40;15.07;;;10.73;;
3465;SDS011;1747;48.884;9.160;2022-08-19T10:21:11;13.60;;;10.73;;
3465;SDS011;1747;48.884;9.160;2022-08-19T10:23:40;13.65;;;11.05;;
3465;SDS011;1747;48.884;9.160;2022-08-19T10:26:11;15.80;;;11.13;;
3465;SDS011;1747;48.884;9.160;2022-08-19T10:28:39;12.20;;;10.57;;
3465;SDS011;1747;48.884;9.160;2022-08-19T10:31:06;13.98;;;9.65;;
3465;SDS011;1747;48.884;9.160;2022-08-19T10:33:34;11.23;;;8.98;;
3465;SDS011;1747;48.884;9.160;2022-08-19T10:36:05;12.07;;;9.77;;
3465;SDS011;1747;48.884;9.160;2022-08-19T10:38:33;12.32;;;9.52;;
3465;SDS011;1747;48.884;9.160;2022-08-19T10:41:06;14.40;;;9.40;;
3465;SDS011;1747;48.884;9.160;2022-08-19T10:43:33;10.52;;;8.35;;
3465;SDS011;1747;48.884;9.160;2022-08-19T10:46:03;9.35;;;8.02;;
3465;SDS011;1747;48.884;9.160;2022-08-19T10:48:30;10.05;;;7.80;;
3465;SDS011;1747;48.884;9.160;2022-08-19T10:50:58;9.55;;;7.78;;
3465;SDS011;1747;48.884;9.160;2022-08-19T10:53:44;10.98;;;7.85;;
3465;SDS011;1747;48.884;9.160;2022-08-19T10:56:11;9.32;;;7.57;;
3465;SDS011;1747;48.884;9.160;2022-08-19T10:58:55;10.00;;;7.70;;
3465;SDS011;1747;48.884;9.160;2022-08-19T11:01:23;13.75;;;6.95;;
3465;SDS011;1747;48.884;9.160;2022-08-19T11:03:50;11.88;;;7.45;;
3465;SDS011;1747;48.884;9.160;2022-08-19T11:06:17;9.30;;;7.47;;
3465;SDS011;1747;48.884;9.160;2022-08-19T11:08:46;9.30;;;7.07;;
3465;SDS011;1747;48.884;9.160;2022-08-19T11:11:13;8.20;;;7.00;;
3465;SDS011;1747;48.884;9.160;2022-08-19T11:13:40;11.50;;;7.97;;
3465;SDS011;1747;48.884;9.160;2022-08-19T11:16:11;10.43;;;7.93;;
3465;SDS011;1747;48.884;9.160;2022-08-19T11:18:42;10.38;;;7.80;;
3465;SDS011;1747;48.884;9.160;2022-08-19T11:21:11;10.38;;;7.30;;
3465;SDS011;1747;48.884;9.160;2022-08-19T11:23:39;9.18;;;7.18;;
3465;SDS011;1747;48.884;9.160;2022-08-19T11:26:07;10.70;;;7.63;;
3465;SDS011;1747;48.884;9.160;2022-08-19T11:28:35;10.50;;;8.00;;
3465;SDS011;1747;48.884;9.160;2022-08-19T11:31:02;9.63;;;7.32;;
3465;SDS011;1747;48.884;9.160;2022-08-19T11:33:29;8.68;;;7.85;;
3465;SDS011;1747;48.884;9.160;2022-08-19T11:35:58;7.43;;;6.72;;
3465;SDS011;1747;48.884;9.160;2022-08-19T11:38:25;8.48;;;7.15;;
3465;SDS011;1747;48.884;9.160;2022-08-19T11:40:56;8.55;;;7.65;;
3465;SDS011;1747;48.884;9.160;2022-08-19T11:43:25;9.88;;;7.32;;
3465;SDS011;1747;48.884;9.160;2022-08-19T11:45:53;10.07;;;6.85;;
3465;SDS011;1747;48.884;9.160;2022-08-19T11:48:20;7.88;;;7.07;;
3465;SDS011;1747;48.884;9.160;2022-08-19T11:50:48;9.18;;;8.27;;
3465;SDS011;1747;48.884;9.160;2022-08-19T11:53:16;10.63;;;8.88;;
3465;SDS011;1747;48.884;9.160;2022-08-19T11:55:43;12.90;;;8.10;;
3465;SDS011;1747;48.884;9.160;2022-08-19T11:58:11;11.45;;;8.77;;
3465;SDS011;1747;48.884;9.160;2022-08-19T12:00:39;11.93;;;8.32;;
3465;SDS011;1747;48.884;9.160;2022-08-19T12:03:07;10.30;;;8.57;;
3465;SDS011;1747;48.884;9.160;2022-08-19T12:05:36;9.35;;;7.82;;
3465;SDS011;1747;48.884;9.160;2022-08-19T12:08:03;11.85;;;8.70;;
3465;SDS011;1747;48.884;9.160;2022-08-19T12:10:31;11.57;;;8.43;;
3465;SDS011;1747;48.884;9.160;2022-08-19T12:12:58;13.55;;;8.23;;
3465;SDS011;1747;48.884;9.160;2022-08-19T12:15:25;15.55;;;8.93;;
3465;SDS011;1747;48.884;9.160;2022-08-19T12:17:55;10.32;;;8.00;;
3465;SDS011;1747;48.884;9.160;2022-08-19T12:20:23;9.20;;;8.20;;
3465;SDS011;1747;48.884;9.160;2022-08-19T12:22:51;9.93;;;8.32;;
3465;SDS011;1747;48.884;9.160;2022-08-19T12:25:18;9.30;;;8.40;;
3465;SDS011;1747;48.884;9.160;2022-08-19T12:27:45;10.07;;;8.00;;
3465;SDS011;1747;48.884;9.160;2022-08-19T12:30:13;9.70;;;8.00;;
3465;SDS011;1747;48.884;9.160;2022-08-19T12:32:40;8.52;;;7.13;;
3465;SDS011;1747;48.884;9.160;2022-08-19T12:35:09;8.13;;;6.95;;
3465;SDS011;1747;48.884;9.160;2022-08-19T12:37:37;9.05;;;7.35;;
3465;SDS011;1747;48.884;9.160;2022-08-19T12:40:04;9.25;;;7.90;;
3465;SDS011;1747;48.884;9.160;2022-08-19T12:42:32;8.48;;;7.68;;
3465;SDS011;1747;48.884;9.160;2022-08-19T12:44:59;8.30;;;6.90;;
3465;SDS011;1747;48.884;9.160;2022-08-19T12:47:26;7.78;;;6.60;;
3465;SDS011;1747;48.884;9.160;2022-08-19T12:49:53;7.65;;;6.85;;
3465;SDS011;1747;48.884;9.160;2022-08-19T12:52:22;7.97;;;7.15;;
3465;SDS011;1747;48.884;9.160;2022-08-19T12:54:50;7.05;;;6.35;;
3465;SDS011;1747;48.884;9.160;2022-08-19T12:57:17;7.65;;;6.82;;
3465;SDS011;1747;48.884;9.160;2022-08-19T12:59:44;10.85;;;6.45;;
3465;SDS011;1747;48.884;9.160;2022-08-19T13:02:11;8.63;;;7.03;;
3465;SDS011;1747;48.884;9.160;2022-08-19T13:04:38;7.28;;;6.57;;
3465;SDS011;1747;48.884;9.160;2022-08-19T13:07:06;9.35;;;6.28;;
3465;SDS011;1747;48.884;9.160;2022-08-19T13:09:35;7.68;;;6.10;;
3465;SDS011;1747;48.884;9.160;2022-08-19T13:12:02;6.85;;;5.80;;
3465;SDS011;1747;48.884;9.160;2022-08-19T13:14:33;10.00;;;5.95;;
3465;SDS011;1747;48.884;9.160;2022-08-19T13:17:00;7.78;;;6.28;;
3465;SDS011;1747;48.884;9.160;2022-08-19T13:19:27;9.13;;;6.20;;
3465;SDS011;1747;48.884;9.160;2022-08-19T13:21:55;7.65;;;6.05;;
3465;SDS011;1747;48.884;9.160;2022-08-19T13:24:23;6.32;;;5.72;;
3465;SDS011;1747;48.884;9.160;2022-08-19T13:26:52;8.27;;;5.95;;
3465;SDS011;1747;48.884;9.160;2022-08-19T13:29:18;7.35;;;6.05;;
3465;SDS011;1747;48.884;9.160;2022-08-19T13:32:03;8.05;;;6.00;;
3465;SDS011;1747;48.884;9.160;2022-08-19T13:34:47;6.85;;;6.15;;
3465;SDS011;1747;48.884;9.160;2022-08-19T13:37:14;7.18;;;5.90;;
3465;SDS011;1747;48.884;9.160;2022-08-19T13:39:41;6.60;;;6.00;;
3465;SDS011;1747;48.884;9.160;2022-08-19T13:42:09;9.02;;;6.25;;
3465;SDS011;1747;48.884;9.160;2022-08-19T13:44:38;8.02;;;5.60;;
3465;SDS011;1747;48.884;9.160;2022-08-19T13:47:05;9.93;;;5.95;;
3465;SDS011;1747;48.884;9.160;2022-08-19T13:49:33;9.40;;;6.38;;
3465;SDS011;1747;48.884;9.160;2022-08-19T13:52:02;13.70;;;9.88;;
3465;SDS011;1747;48.884;9.160;2022-08-19T13:54:30;21.73;;;13.70;;
3465;SDS011;1747;48.884;9.160;2022-08-19T13:56:57;23.83;;;16.38;;
3465;SDS011;1747;48.884;9.160;2022-08-19T13:59:26;20.05;;;16.55;;
3465;SDS011;1747;48.884;9.160;2022-08-19T14:01:56;22.60;;;16.85;;
3465;SDS011;1747;48.884;9.160;2022-08-19T14:04:24;25.48;;;16.75;;
3465;SDS011;1747;48.884;9.160;2022-08-19T14:06:50;23.30;;;17.50;;
3465;SDS011;1747;48.884;9.160;2022-08-19T14:09:17;20.83;;;16.55;;
3465;SDS011;1747;48.884;9.160;2022-08-19T14:11:44;21.23;;;17.42;;
3465;SDS011;1747;48.884;9.160;2022-08-19T14:14:11;25.45;;;18.55;;
3465;SDS011;1747;48.884;9.160;2022-08-19T14:16:40;26.48;;;18.77;;
3465;SDS011;1747;48.884;9.160;2022-08-19T14:19:07;22.67;;;18.60;;
3465;SDS011;1747;48.884;9.160;2022-08-19T14:21:34;24.75;;;18.70;;
3465;SDS011;1747;48.884;9.160;2022-08-19T14:24:01;25.23;;;18.70;;
3465;SDS011;1747;48.884;9.160;2022-08-19T14:26:28;25.88;;;18.73;;
3465;SDS011;1747;48.884;9.160;2022-08-19T14:28:55;23.95;;;17.88;;
3465;SDS011;1747;48.884;9.160;2022-08-19T14:31:23;24.50;;;17.65;;
3465;SDS011;1747;48.884;9.160;2022-08-19T14:33:52;22.50;;;18.75;;
3465;SDS011;1747;48.884;9.160;2022-08-19T14:36:19;22.40;;;16.23;;
3465;SDS011;1747;48.884;9.160;2022-08-19T14:38:46;24.63;;;18.30;;
3465;SDS011;1747;48.884;9.160;2022-08-19T14:41:15;20.10;;;16.83;;
3465;SDS011;1747;48.884;9.160;2022-08-19T14:43:45;21.33;;;17.40;;
3465;SDS011;1747;48.884;9.160;2022-08-19T14:46:13;22.42;;;17.08;;
3465;SDS011;1747;48.884;9.160;2022-08-19T14:48:41;21.10;;;17.00;;
3465;SDS011;1747;48.884;9.160;2022-08-19T14:51:09;20.63;;;16.08;;
3465;SDS011;1747;48.884;9.160;2022-08-19T14:53:36;21.95;;;17.45;;
3465;SDS011;1747;48.884;9.160;2022-08-19T14:56:07;20.75;;;17.42;;
3465;SDS011;1747;48.884;9.160;2022-08-19T14:58:34;20.67;;;16.42;;
3465;SDS011;1747;48.884;9.160;2022-08-19T15:01:02;20.25;;;16.30;;
3465;SDS011;1747;48.884;9.160;2022-08-19T15:03:29;22.48;;;18.25;;
3465;SDS011;1747;48.884;9.160;2022-08-19T15:05:57;23.65;;;18.73;;